Time;durP1;ratioP1;P1;durP2;ratioP2;P2;SDS_P1;SDS_P2;PMS_P1;PMS_P2;Temp;Humidity;BMP_temperature;BMP_pressure;BME280_temperature;BME280_humidity;BME280_pressure;Samples;Min_cycle;Max_cycle;Signal;HPM_P1;HPM_P2
2022/10/19 00:01:18;;;;;;;20.72;14.05;;;;;;;11.27;100.00;101439.64;1682115;84;21461;-76
2022/10/19 00:03:50;;;;;;;18.90;13.83;;;;;;;11.26;100.00;101435.76;1688825;84;21275;-78
2022/10/19 00:06:27;;;;;;;19.92;14.07;;;;;;;11.26;100.00;101437.93;1689203;84;21553;-77
2022/10/19 00:09:02;;;;;;;20.55;14.83;;;;;;;11.29;100.00;101440.94;1714817;83;21038;-78
2022/10/19 00:11:30;;;;;;;20.92;14.60;;;;;;;11.31;100.00;101445.70;1696734;83;21103;-75
2022/10/19 00:13:59;;;;;;;20.45;14.68;;;;;;;11.32;100.00;101440.86;1712551;83;21006;-76
2022/10/19 00:16:30;;;;;;;19.00;15.30;;;;;;;11.33;100.00;101434.70;1696213;83;21063;-75
2022/10/19 00:19:00;;;;;;;22.17;15.48;;;;;;;11.35;100.00;101434.22;1648450;84;21121;-76
2022/10/19 00:21:28;;;;;;;18.27;14.53;;;;;;;11.35;100.00;101432.91;1699543;84;20959;-81
2022/10/19 00:23:55;;;;;;;21.37;15.00;;;;;;;11.38;100.00;101436.31;1692626;83;21016;-75
2022/10/19 00:26:23;;;;;;;19.62;15.25;;;;;;;11.39;100.00;101432.81;1662680;84;21531;-74
2022/10/19 00:28:53;;;;;;;23.92;15.93;;;;;;;11.43;100.00;101434.91;1691820;84;21051;-74
2022/10/19 00:31:21;;;;;;;20.32;14.33;;;;;;;11.45;100.00;101434.88;1692015;84;21146;-77
2022/10/19 00:33:48;;;;;;;21.30;15.48;;;;;;;11.46;100.00;101436.14;1691631;84;21350;-75
2022/10/19 00:36:26;;;;;;;21.82;16.17;;;;;;;11.46;100.00;101434.83;1692091;84;21464;-75
2022/10/19 00:38:55;;;;;;;26.73;16.17;;;;;;;11.46;100.00;101434.83;1696619;84;21521;-76
2022/10/19 00:41:25;;;;;;;20.25;15.03;;;;;;;11.48;100.00;101429.55;1692041;84;21521;-75
2022/10/19 00:44:16;;;;;;;22.67;15.95;;;;;;;11.49;100.00;101435.20;1691974;84;21561;-75
2022/10/19 00:46:45;;;;;;;;;;;;;;;11.48;100.00;101434.34;1682405;84;21006;-75
2022/10/19 00:49:21;;;;;;;21.68;15.60;;;;;;;11.50;100.00;101431.66;1676203;84;20129;-75
2022/10/19 00:51:53;;;;;;;26.87;16.85;;;;;;;11.48;100.00;101426.47;1692157;84;21016;-75
2022/10/19 00:54:21;;;;;;;22.93;15.60;;;;;;;11.49;100.00;101435.20;1692168;84;21601;-75
2022/10/19 00:56:52;;;;;;;19.73;16.05;;;;;;;11.50;100.00;101435.60;1691943;84;21957;-74
2022/10/19 00:59:23;;;;;;;21.48;15.63;;;;;;;11.49;100.00;101431.27;1692060;84;20997;-75
2022/10/19 01:01:53;;;;;;;19.50;15.40;;;;;;;11.50;100.00;101430.35;1692094;84;21040;-75
2022/10/19 01:04:22;;;;;;;24.27;16.17;;;;;;;11.52;100.00;101424.16;1692226;84;21079;-74
2022/10/19 01:06:50;;;;;;;21.60;16.12;;;;;;;11.51;100.00;101421.14;1692181;84;26433;-81
2022/10/19 01:09:17;;;;;;;24.47;16.48;;;;;;;11.51;100.00;101418.97;1662845;84;21120;-76
2022/10/19 01:12:31;;;;;;;22.67;15.75;;;;;;;11.49;100.00;101411.58;1694689;84;21440;-74
2022/10/19 01:15:25;;;;;;;21.55;15.83;;;;;;;11.47;100.00;101415.53;1693420;83;21039;-75
2022/10/19 01:18:12;;;;;;;22.58;16.07;;;;;;;11.45;100.00;101417.36;1679957;84;21545;-75
2022/10/19 01:20:56;;;;;;;26.10;16.30;;;;;;;11.43;100.00;101426.17;1684964;83;21286;-75
2022/10/19 01:23:35;;;;;;;25.23;17.23;;;;;;;11.40;100.00;101424.48;1675228;84;21851;-81
2022/10/19 01:26:37;;;;;;;25.37;18.85;;;;;;;11.38;100.00;101423.64;1677195;84;21038;-81
2022/10/19 01:29:57;;;;;;;23.75;18.17;;;;;;;11.35;100.00;101426.34;1677107;84;21049;-75
2022/10/19 01:32:47;;;;;;;27.55;17.60;;;;;;;11.33;100.00;101422.47;1694697;83;21500;-75
2022/10/19 01:35:31;;;;;;;26.95;16.30;;;;;;;11.30;100.00;101415.95;1677275;84;21319;-75
2022/10/19 01:38:15;;;;;;;19.75;15.28;;;;;;;11.30;100.00;101412.46;1677275;84;21548;-75
2022/10/19 01:40:57;;;;;;;23.73;15.35;;;;;;;11.27;100.00;101414.70;1676286;84;21094;-76
2022/10/19 01:43:32;;;;;;;21.40;16.12;;;;;;;11.27;100.00;101412.54;1694744;83;21031;-75
2022/10/19 01:46:04;;;;;;;23.52;16.62;;;;;;;11.26;100.00;101407.75;1676083;83;20998;-75
2022/10/19 01:48:36;;;;;;;25.77;16.75;;;;;;;11.26;100.00;101413.45;1676709;84;21033;-76
2022/10/19 01:51:18;;;;;;;24.92;17.40;;;;;;;11.23;100.00;101410.91;1659033;84;21614;-75
2022/10/19 01:53:52;;;;;;;21.35;16.52;;;;;;;11.22;100.00;101413.09;1694555;83;20994;-75
2022/10/19 01:56:24;;;;;;;21.15;16.52;;;;;;;11.19;100.00;101410.09;1677243;84;21002;-75
2022/10/19 01:58:55;;;;;;;24.90;16.95;;;;;;;11.19;100.00;101417.10;1694574;83;21068;-75
2022/10/19 02:01:25;;;;;;;23.32;17.15;;;;;;;11.17;100.00;101410.59;1707436;83;21075;-78
2022/10/19 02:03:54;;;;;;;24.65;17.35;;;;;;;11.17;100.00;101414.53;1697874;83;21102;-75
2022/10/19 02:06:21;;;;;;;24.07;17.75;;;;;;;11.16;100.00;101412.79;1716378;83;21662;-76
2022/10/19 02:08:52;;;;;;;27.40;18.80;;;;;;;11.15;100.00;101420.26;1697652;83;21032;-76
2022/10/19 02:11:21;;;;;;;25.62;18.02;;;;;;;11.14;100.00;101415.89;1716092;83;21000;-75
2022/10/19 02:13:56;;;;;;;26.93;19.23;;;;;;;11.13;100.00;101424.22;1693770;83;21041;-79
2022/10/19 02:16:28;;;;;;;26.45;18.37;;;;;;;11.13;100.00;101421.59;1694376;83;21122;-75
2022/10/19 02:18:56;;;;;;;27.05;18.95;;;;;;;11.15;100.00;101420.26;1677342;84;21033;-75
2022/10/19 02:21:25;;;;;;;23.47;18.32;;;;;;;11.14;100.00;101413.27;1692566;83;21410;-75
2022/10/19 02:23:52;;;;;;;24.65;17.82;;;;;;;11.14;100.00;101421.13;1692162;84;20996;-75
2022/10/19 02:26:21;;;;;;;27.93;19.35;;;;;;;11.13;100.00;101413.72;1692217;84;21509;-74
2022/10/19 02:28:49;;;;;;;25.75;18.50;;;;;;;11.11;100.00;101415.54;1691654;84;21901;-75
2022/10/19 02:31:16;;;;;;;22.58;17.73;;;;;;;11.11;100.00;101416.85;1691894;84;21039;-77
2022/10/19 02:33:43;;;;;;;24.80;18.07;;;;;;;11.11;100.00;101410.71;1691658;84;21008;-75
2022/10/19 02:36:10;;;;;;;24.60;17.15;;;;;;;11.11;100.00;101414.66;1692028;84;21470;-75
2022/10/19 02:38:39;;;;;;;25.12;17.00;;;;;;;11.09;100.00;101411.22;1691995;84;21502;-75
2022/10/19 02:41:39;;;;;;;21.75;15.45;;;;;;;11.10;100.00;101405.06;1692031;84;21134;-75
2022/10/19 02:44:14;;;;;;;22.50;15.05;;;;;;;11.09;100.00;101402.04;1680029;84;21054;-77
2022/10/19 02:46:45;;;;;;;26.12;14.98;;;;;;;11.09;100.00;101403.35;1649601;85;22068;-75
2022/10/19 02:49:13;;;;;;;20.88;14.65;;;;;;;11.10;100.00;101398.50;1668631;84;21479;-75
2022/10/19 02:52:03;;;;;;;24.52;14.10;;;;;;;11.08;100.00;101402.91;1691973;84;21442;-74
2022/10/19 02:54:31;;;;;;;20.88;13.93;;;;;;;11.09;100.00;101398.11;1691997;84;22031;-75
2022/10/19 02:56:59;;;;;;;19.48;13.83;;;;;;;11.12;100.00;101401.97;1691958;84;21585;-74
2022/10/19 02:59:26;;;;;;;19.55;13.25;;;;;;;11.08;100.00;101395.91;1691788;84;21032;-78
2022/10/19 03:01:53;;;;;;;20.02;13.05;;;;;;;11.07;100.00;101390.25;1662734;85;21450;-75
2022/10/19 03:04:20;;;;;;;19.87;11.05;;;;;;;11.04;100.00;101392.09;1692168;84;21051;-75
2022/10/19 03:06:47;;;;;;;15.05;10.70;;;;;;;11.00;100.00;101383.44;1692099;84;21121;-74
2022/10/19 03:09:15;;;;;;;17.00;10.25;;;;;;;10.99;100.00;101384.77;1691707;84;21044;-80
2022/10/19 03:11:42;;;;;;;14.35;8.73;;;;;;;10.96;100.00;101384.85;1694610;84;21082;-74
2022/10/19 03:14:09;;;;;;;12.88;8.85;;;;;;;10.93;100.00;101384.47;1697370;84;21051;-74
2022/10/19 03:16:36;;;;;;;13.70;9.17;;;;;;;10.91;100.00;101390.19;1691753;83;22554;-74
2022/10/19 03:19:03;;;;;;;15.63;9.40;;;;;;;10.91;100.00;101388.88;1691855;84;21102;-75
2022/10/19 03:21:30;;;;;;;14.70;8.65;;;;;;;10.90;100.00;101384.09;1690409;84;20982;-75
2022/10/19 03:23:59;;;;;;;16.05;8.60;;;;;;;10.86;100.00;101381.55;1689800;84;21003;-75
2022/10/19 03:26:27;;;;;;;14.73;8.07;;;;;;;10.84;100.00;101382.06;1690006;84;21046;-75
2022/10/19 03:28:54;;;;;;;10.05;8.05;;;;;;;10.80;100.00;101386.94;1690004;84;21607;-74
2022/10/19 03:31:21;;;;;;;17.27;8.03;;;;;;;10.75;100.00;101376.55;1690022;84;21199;-75
2022/10/19 03:33:49;;;;;;;14.25;8.13;;;;;;;10.70;100.00;101383.22;1689621;84;21030;-75
2022/10/19 03:36:25;;;;;;;17.10;7.57;;;;;;;10.69;100.00;101380.62;1689997;84;21042;-75
2022/10/19 03:38:56;;;;;;;13.50;7.70;;;;;;;10.66;100.00;101380.23;1689691;84;21054;-75
2022/10/19 03:41:27;;;;;;;11.00;7.35;;;;;;;10.64;100.00;101389.03;1690121;84;21093;-74
2022/10/19 03:43:55;;;;;;;10.93;7.15;;;;;;;10.61;100.00;101389.95;1688829;84;21126;-75
2022/10/19 03:46:22;;;;;;;13.58;7.08;;;;;;;10.59;100.00;101390.45;1690028;84;21516;-74
2022/10/19 03:48:49;;;;;;;15.83;7.22;;;;;;;10.57;100.00;101393.55;1689999;84;21453;-80
2022/10/19 03:51:21;;;;;;;14.33;7.40;;;;;;;10.55;100.00;101392.71;1690051;84;21031;-75
2022/10/19 03:53:57;;;;;;;11.78;7.37;;;;;;;10.50;100.00;101394.56;1689180;84;21042;-74
2022/10/19 03:56:26;;;;;;;11.95;7.30;;;;;;;10.44;100.00;101392.94;1689798;84;21983;-74
2022/10/19 03:58:55;;;;;;;16.50;7.55;;;;;;;10.43;100.00;101398.22;1689944;84;20995;-74
2022/10/19 04:01:29;;;;;;;13.03;7.53;;;;;;;10.40;100.00;101391.28;1690269;84;21045;-75
2022/10/19 04:04:03;;;;;;;13.78;7.72;;;;;;;10.38;100.00;101391.76;1690089;84;21732;-76
2022/10/19 04:06:34;;;;;;;15.90;7.72;;;;;;;10.37;100.00;101394.42;1690165;84;21034;-81
2022/10/19 04:09:01;;;;;;;12.30;7.60;;;;;;;10.33;100.00;101397.98;1689992;84;21089;-77
2022/10/19 04:11:30;;;;;;;12.68;7.37;;;;;;;10.29;100.00;101402.89;1688041;84;21070;-75
2022/10/19 04:13:58;;;;;;;11.30;7.17;;;;;;;10.25;100.00;101401.61;1662257;86;21016;-82
2022/10/19 04:16:28;;;;;;;12.75;7.55;;;;;;;10.24;100.00;101410.34;1689834;84;21016;-75
2022/10/19 04:18:56;;;;;;;13.08;6.78;;;;;;;10.22;100.00;101409.95;1690004;84;21509;-75
2022/10/19 04:21:30;;;;;;;11.20;7.45;;;;;;;10.19;100.00;101404.32;1689644;84;21961;-80
2022/10/19 04:24:16;;;;;;;13.48;7.22;;;;;;;10.17;100.00;101403.52;1689984;84;21011;-74
2022/10/19 04:26:47;;;;;;;9.37;7.23;;;;;;;10.17;100.00;101410.48;1689724;84;21058;-82
2022/10/19 04:29:16;;;;;;;12.40;6.80;;;;;;;10.17;100.00;101410.48;1689934;84;21092;-75
2022/10/19 04:31:43;;;;;;;13.75;5.72;;;;;;;10.17;100.00;101413.98;1689657;84;21497;-75
2022/10/19 04:34:10;;;;;;;9.43;6.10;;;;;;;10.18;100.00;101412.23;1689917;84;21548;-79
2022/10/19 04:36:38;;;;;;;12.07;6.58;;;;;;;10.18;100.00;101412.23;1689970;84;21046;-84
2022/10/19 04:39:05;;;;;;;11.10;5.50;;;;;;;10.18;100.00;101414.39;1689665;84;21058;-79
2022/10/19 04:41:33;;;;;;;12.63;6.20;;;;;;;10.19;100.00;101409.56;1689911;84;21550;-80
2022/10/19 04:44:03;;;;;;;13.07;6.67;;;;;;;10.21;100.00;101414.78;1689738;84;21054;-82
2022/10/19 04:46:30;;;;;;;8.15;4.90;;;;;;;10.22;100.00;101416.50;1690307;84;21161;-74
2022/10/19 04:48:59;;;;;;;10.87;4.83;;;;;;;10.21;100.00;101414.33;1689648;84;21101;-75
2022/10/19 04:51:27;;;;;;;10.90;5.45;;;;;;;10.20;100.00;101417.86;1690206;84;21492;-75
2022/10/19 04:53:57;;;;;;;10.05;5.33;;;;;;;10.19;100.00;101415.25;1689993;84;21042;-75
2022/10/19 04:56:25;;;;;;;11.15;4.78;;;;;;;10.18;100.00;101417.02;1690280;84;21000;-74
2022/10/19 04:58:56;;;;;;;9.30;4.33;;;;;;;10.19;100.00;101408.70;1689628;84;21938;-79
2022/10/19 05:01:26;;;;;;;7.40;4.50;;;;;;;10.18;100.00;101409.16;1690142;84;21454;-74
2022/10/19 05:03:58;;;;;;;;;;;;;;;10.18;100.00;101409.16;1692687;84;21019;-75
2022/10/19 05:06:25;;;;;;;11.08;4.08;;;;;;;10.18;100.00;101404.37;1665833;85;20612;-73
2022/10/19 05:08:52;;;;;;;8.93;4.60;;;;;;;10.16;100.00;101414.01;1673963;84;21082;-73
2022/10/19 05:11:20;;;;;;;10.23;4.30;;;;;;;10.14;100.00;101411.44;1659975;86;21980;-72
2022/10/19 05:13:47;;;;;;;7.20;4.20;;;;;;;10.14;100.00;101407.92;1673597;84;21890;-74
2022/10/19 05:16:19;;;;;;;8.45;3.92;;;;;;;10.15;100.00;101413.15;1660215;86;21088;-74
2022/10/19 05:18:57;;;;;;;9.35;3.85;;;;;;;10.13;100.00;101418.85;1673551;84;21024;-72
2022/10/19 05:21:27;;;;;;;7.00;4.10;;;;;;;10.12;100.00;101417.59;1663130;85;21539;-73
2022/10/19 05:23:55;;;;;;;8.78;4.05;;;;;;;10.10;100.00;101418.06;1693339;83;21571;-73
2022/10/19 05:26:25;;;;;;;6.37;3.42;;;;;;;10.07;100.00;101416.81;1693957;83;21521;-71
2022/10/19 05:28:56;;;;;;;9.95;4.40;;;;;;;10.05;100.00;101423.37;1694091;83;21052;-76
2022/10/19 05:31:27;;;;;;;9.00;4.17;;;;;;;10.06;100.00;101412.02;1673940;84;21045;-73
2022/10/19 05:33:55;;;;;;;7.30;3.87;;;;;;;10.09;100.00;101417.62;1693675;83;21055;-77
2022/10/19 05:36:25;;;;;;;9.30;3.55;;;;;;;10.06;100.00;101415.95;1694146;83;22018;-71
2022/10/19 05:38:55;;;;;;;12.43;4.10;;;;;;;10.03;100.00;101416.87;1693465;83;21106;-71
2022/10/19 05:41:25;;;;;;;12.53;4.67;;;;;;;10.01;100.00;101429.13;1694060;83;21520;-71
2022/10/19 05:43:55;;;;;;;8.40;3.63;;;;;;;9.99;100.00;101423.03;1693314;83;22082;-71
2022/10/19 05:46:23;;;;;;;6.28;3.60;;;;;;;9.99;100.00;101426.11;1693598;83;21059;-71
2022/10/19 05:48:50;;;;;;;9.30;3.80;;;;;;;9.98;100.00;101437.04;1693851;83;21141;-72
2022/10/19 05:51:20;;;;;;;8.68;3.60;;;;;;;10.00;100.00;101435.69;1693923;83;21573;-71
2022/10/19 05:53:47;;;;;;;8.55;3.65;;;;;;;9.99;100.00;101441.38;1693843;83;27626;-71
2022/10/19 05:56:23;;;;;;;8.03;3.47;;;;;;;10.00;100.00;101444.44;1693659;83;21525;-72
2022/10/19 05:58:51;;;;;;;9.03;3.85;;;;;;;10.02;100.00;101446.55;1692057;83;21605;-72
2022/10/19 06:01:19;;;;;;;7.33;3.77;;;;;;;10.03;100.00;101450.92;1694184;83;21085;-72
2022/10/19 06:03:48;;;;;;;14.18;3.87;;;;;;;10.06;100.00;101455.24;1694126;83;21100;-74
2022/10/19 06:06:16;;;;;;;11.00;3.60;;;;;;;10.07;100.00;101454.34;1693536;83;21012;-74
2022/10/19 06:08:43;;;;;;;11.15;4.22;;;;;;;10.05;100.00;101452.19;1690856;83;20948;-72
2022/10/19 06:11:14;;;;;;;8.53;3.15;;;;;;;10.04;100.00;101455.70;1689413;83;21061;-79
2022/10/19 06:13:43;;;;;;;12.05;3.55;;;;;;;10.04;100.00;101451.33;1695869;83;21150;-72
2022/10/19 06:16:13;;;;;;;8.23;3.77;;;;;;;10.07;100.00;101456.09;1695014;83;21055;-72
2022/10/19 06:18:41;;;;;;;;;;;;;;;10.08;100.00;101458.67;1696254;83;21310;-71
2022/10/19 06:21:13;;;;;;;7.20;3.70;;;;;;;10.08;100.00;101457.81;1673596;84;20614;-72
2022/10/19 06:23:41;;;;;;;5.85;3.45;;;;;;;10.07;100.00;101466.58;1659512;85;21571;-73
2022/10/19 06:26:11;;;;;;;5.47;3.60;;;;;;;10.11;100.00;101466.92;1631009;87;21918;-74
2022/10/19 06:28:42;;;;;;;6.03;3.33;;;;;;;10.11;100.00;101469.09;1658553;85;21046;-72
2022/10/19 06:31:11;;;;;;;9.30;3.50;;;;;;;10.13;100.00;101469.08;1631528;87;28775;-73
2022/10/19 06:33:40;;;;;;;8.85;4.17;;;;;;;10.14;100.00;101466.45;1653124;85;21752;-73
2022/10/19 06:36:17;;;;;;;7.90;3.08;;;;;;;10.17;100.00;101472.94;1656995;85;21151;-73
2022/10/19 06:38:45;;;;;;;6.55;3.65;;;;;;;10.19;100.00;101473.75;1657841;85;21141;-73
2022/10/19 06:41:13;;;;;;;9.80;3.77;;;;;;;10.22;100.00;101476.31;1621423;87;21060;-73
2022/10/19 06:43:42;;;;;;;10.82;3.80;;;;;;;10.26;100.00;101473.21;1649589;85;21050;-73
2022/10/19 06:46:19;;;;;;;10.15;4.72;;;;;;;10.30;100.00;101474.90;1622459;87;21067;-72
2022/10/19 06:48:41;;;;;;;7.50;3.90;;;;;;;10.35;100.00;101473.52;1648180;85;21046;-73
2022/10/19 06:51:08;;;;;;;10.10;3.50;;;;;;;10.38;100.00;101475.62;1622796;87;21148;-72
2022/10/19 06:53:36;;;;;;;7.37;3.12;;;;;;;10.38;100.00;101471.69;1648856;85;21035;-72
2022/10/19 06:56:05;;;;;;;8.30;3.33;;;;;;;10.42;100.00;101474.69;1651496;85;21059;-72
2022/10/19 06:58:37;;;;;;;6.15;2.70;;;;;;;10.44;100.00;101479.42;1648715;85;21472;-71
2022/10/19 07:01:06;;;;;;;8.25;3.15;;;;;;;10.49;100.00;101481.97;1651415;85;21066;-72
2022/10/19 07:03:35;;;;;;;5.78;2.72;;;;;;;10.52;100.00;101477.12;1649249;85;21124;-72
2022/10/19 07:06:08;;;;;;;4.87;2.92;;;;;;;10.54;100.00;101483.20;1651203;85;20974;-73
2022/10/19 07:08:38;;;;;;;12.43;3.17;;;;;;;10.55;100.00;101490.16;1627564;87;21071;-72
2022/10/19 07:11:12;;;;;;;6.85;2.72;;;;;;;10.58;100.00;101496.20;1650885;85;21062;-71
2022/10/19 07:13:39;;;;;;;7.85;3.17;;;;;;;10.60;100.00;101494.42;1659351;85;21055;-72
2022/10/19 07:16:10;;;;;;;7.15;2.90;;;;;;;10.64;100.00;101499.15;1631685;87;21709;-71
2022/10/19 07:18:39;;;;;;;12.25;2.55;;;;;;;10.70;100.00;101500.36;1659157;85;21066;-71
2022/10/19 07:21:11;;;;;;;10.90;2.90;;;;;;;10.75;100.00;101498.94;1649545;85;21046;-71
2022/10/19 07:23:41;;;;;;;6.35;2.08;;;;;;;10.78;100.00;101501.08;1686669;84;21053;-72
2022/10/19 07:26:22;;;;;;;5.58;2.17;;;;;;;10.80;100.00;101501.87;1688955;84;21663;-71
2022/10/19 07:28:50;;;;;;;7.62;3.05;;;;;;;10.84;100.00;101509.27;1688258;84;21516;-72
2022/10/19 07:31:20;;;;;;;5.95;2.17;;;;;;;10.92;100.00;101517.39;1688205;84;21012;-72
2022/10/19 07:33:57;;;;;;;4.72;1.60;;;;;;;11.02;100.00;101511.94;1689257;84;21032;-71
2022/10/19 07:36:24;;;;;;;9.88;2.65;;;;;;;11.08;100.00;101514.42;1686946;84;21047;-72
2022/10/19 07:38:52;;;;;;;4.35;1.77;;;;;;;11.14;100.00;101516.48;1688172;84;21073;-72
2022/10/19 07:41:22;;;;;;;6.17;1.92;;;;;;;11.16;99.71;101523.00;1687942;84;21137;-72
2022/10/19 07:43:50;;;;;;;5.72;1.95;;;;;;;11.14;99.46;101521.73;1688139;84;21102;-72
2022/10/19 07:46:21;;;;;;;6.65;2.10;;;;;;;11.14;99.19;101525.67;1688247;84;21478;-71
2022/10/19 07:48:48;;;;;;;7.53;2.02;;;;;;;11.18;99.13;101522.98;1688572;84;21087;-73
2022/10/19 07:51:17;;;;;;;7.22;2.05;;;;;;;11.20;99.02;101521.20;1688378;84;21451;-72
2022/10/19 07:53:44;;;;;;;5.10;2.15;;;;;;;11.25;99.17;101528.07;1688108;84;21210;-72
2022/10/19 07:56:16;;;;;;;5.72;2.05;;;;;;;11.28;98.81;101525.37;1688208;84;21028;-73
2022/10/19 07:58:43;;;;;;;5.90;1.70;;;;;;;11.28;98.56;101524.06;1688226;84;21501;-73
2022/10/19 08:01:14;;;;;;;6.50;1.77;;;;;;;11.31;98.41;101527.07;1688188;84;21040;-72
2022/10/19 08:03:42;;;;;;;2.45;2.00;;;;;;;11.38;98.77;101521.63;1688567;84;21040;-72
2022/10/19 08:06:12;;;;;;;4.75;1.65;;;;;;;11.51;98.78;101527.93;1688301;84;22615;-72
2022/10/19 08:08:40;;;;;;;5.00;1.80;;;;;;;11.57;98.57;101529.09;1688071;84;21032;-73
2022/10/19 08:11:16;;;;;;;8.13;1.67;;;;;;;11.56;97.82;101520.81;1688078;84;21028;-72
2022/10/19 08:13:43;;;;;;;5.50;1.52;;;;;;;11.54;97.67;101527.40;1677616;84;21040;-72
2022/10/19 08:16:27;;;;;;;4.20;1.57;;;;;;;11.55;97.56;101517.75;1689642;84;21027;-72
2022/10/19 08:19:01;;;;;;;3.33;1.27;;;;;;;11.58;97.67;101519.88;1688059;84;21132;-71
2022/10/19 08:21:29;;;;;;;5.50;1.50;;;;;;;11.59;97.21;101517.66;1689387;84;20974;-71
2022/10/19 08:23:56;;;;;;;4.45;1.30;;;;;;;11.60;97.21;101524.63;1662037;84;21499;-72
2022/10/19 08:26:26;;;;;;;4.95;1.42;;;;;;;11.59;96.85;101520.73;1632207;87;22362;-72
2022/10/19 08:28:55;;;;;;;3.30;1.42;;;;;;;11.65;96.91;101517.11;1660500;85;21086;-74
2022/10/19 08:31:22;;;;;;;4.95;2.00;;;;;;;11.76;97.19;101515.94;1614385;87;21963;-72
2022/10/19 08:33:49;;;;;;;4.22;1.60;;;;;;;11.89;97.36;101520.92;1659865;85;21070;-73
2022/10/19 08:36:18;;;;;;;4.45;1.75;;;;;;;11.97;96.99;101515.91;1626609;87;21637;-73
2022/10/19 08:38:47;;;;;;;3.60;1.60;;;;;;;12.02;96.50;101519.72;1621628;87;20988;-79
2022/10/19 08:41:36;;;;;;;2.95;1.35;;;;;;;12.04;96.25;101514.84;1621724;87;21039;-73
2022/10/19 08:44:35;;;;;;;3.83;1.55;;;;;;;12.11;96.09;101510.73;1649356;85;21144;-76
2022/10/19 08:47:22;;;;;;;4.90;1.30;;;;;;;12.16;95.88;101516.73;1649651;86;21100;-73
2022/10/19 08:49:50;;;;;;;4.45;1.70;;;;;;;12.23;95.88;101513.06;1649740;85;21017;-73
2022/10/19 08:52:25;;;;;;;4.55;1.42;;;;;;;12.26;95.48;101520.41;1649843;85;21567;-78
2022/10/19 08:54:59;;;;;;;4.15;1.50;;;;;;;12.26;95.28;101524.35;1649675;86;21298;-79
2022/10/19 08:57:44;;;;;;;2.80;1.30;;;;;;;12.32;95.06;101521.16;1649647;85;22057;-75
2022/10/19 09:00:25;;;;;;;6.00;1.10;;;;;;;12.34;94.81;101523.30;1649667;86;21336;-74
2022/10/19 09:03:24;;;;;;;4.95;1.00;;;;;;;12.38;94.92;101520.98;1645890;86;21022;-74
2022/10/19 09:06:11;;;;;;;6.62;1.55;;;;;;;12.40;94.66;101525.30;1645794;86;21035;-77
2022/10/19 09:08:39;;;;;;;6.40;1.07;;;;;;;12.43;94.36;101521.73;1645841;86;21046;-76
2022/10/19 09:11:09;;;;;;;2.92;0.80;;;;;;;12.42;94.01;101532.70;1645550;86;21148;-74
2022/10/19 09:13:41;;;;;;;2.62;1.10;;;;;;;12.43;93.87;101528.30;1645848;86;21090;-74
2022/10/19 09:16:16;;;;;;;2.87;1.00;;;;;;;12.48;93.99;101529.05;1645785;86;21041;-74
2022/10/19 09:18:45;;;;;;;3.12;0.88;;;;;;;12.56;94.13;101535.42;1645933;86;21003;-74
2022/10/19 09:21:41;;;;;;;5.20;1.30;;;;;;;12.59;93.69;101537.51;1649870;85;21051;-74
2022/10/19 09:24:17;;;;;;;1.45;0.50;;;;;;;12.56;93.17;101534.11;1648609;86;22584;-74
2022/10/19 09:26:54;;;;;;;3.72;0.62;;;;;;;12.52;92.80;101537.70;1690487;84;21038;-79
2022/10/19 09:29:27;;;;;;;1.77;0.42;;;;;;;12.61;92.88;101534.39;1692207;84;21030;-74
2022/10/19 09:32:00;;;;;;;0.90;0.47;;;;;;;12.92;92.86;101540.11;1691720;84;22225;-74
2022/10/19 09:34:44;;;;;;;2.47;0.70;;;;;;;13.13;92.73;101539.46;1696146;83;21390;-80
2022/10/19 09:37:12;;;;;;;2.60;0.75;;;;;;;13.24;92.27;101544.88;1677148;84;21136;-74
2022/10/19 09:39:39;;;;;;;2.83;0.80;;;;;;;13.28;91.78;101542.61;1696142;83;21012;-75
2022/10/19 09:42:35;;;;;;;3.37;1.10;;;;;;;13.31;91.26;101545.15;1695898;83;21507;-74
2022/10/19 09:45:26;;;;;;;2.83;1.00;;;;;;;13.40;91.35;101540.91;1696137;83;21082;-78
2022/10/19 09:47:53;;;;;;;4.85;1.00;;;;;;;13.61;90.46;101544.20;1695488;83;21031;-74
2022/10/19 09:50:26;;;;;;;2.83;0.85;;;;;;;13.79;90.71;101548.47;1696276;83;21278;-75
2022/10/19 09:53:00;;;;;;;4.35;1.10;;;;;;;13.78;89.99;101555.52;1696051;83;21000;-74
2022/10/19 09:55:44;;;;;;;5.28;1.20;;;;;;;13.75;89.68;101547.72;1676892;84;21010;-80
2022/10/19 09:58:18;;;;;;;2.85;0.85;;;;;;;13.76;89.76;101553.38;1696383;83;21517;-75
2022/10/19 10:00:50;;;;;;;4.42;1.20;;;;;;;13.70;89.25;101561.48;1695977;83;21081;-74
2022/10/19 10:03:39;;;;;;;2.90;1.20;;;;;;;13.59;89.01;101557.87;1696483;83;21163;-74
2022/10/19 10:06:16;;;;;;;3.52;1.20;;;;;;;13.52;88.67;101559.41;1695929;83;21031;-79
2022/10/19 10:08:49;;;;;;;3.37;1.25;;;;;;;13.51;88.81;101564.28;1696470;83;21569;-75
2022/10/19 10:11:36;;;;;;;2.75;1.10;;;;;;;13.50;88.63;101558.63;1696983;83;21032;-80
2022/10/19 10:14:20;;;;;;;3.35;1.20;;;;;;;13.57;88.67;101555.73;1710702;83;21525;-74
2022/10/19 10:16:47;;;;;;;6.15;1.10;;;;;;;13.71;88.91;101568.47;1695770;83;21137;-74
2022/10/19 10:19:18;;;;;;;5.03;1.52;;;;;;;13.69;88.20;101558.45;1696382;83;21040;-73
2022/10/19 10:21:54;;;;;;;2.98;1.07;;;;;;;13.62;87.74;101556.91;1696036;83;21028;-75
2022/10/19 10:24:25;;;;;;;3.30;1.30;;;;;;;13.56;87.70;101559.75;1696069;83;21023;-74
2022/10/19 10:26:57;;;;;;;3.47;1.27;;;;;;;13.55;87.59;101560.20;1696055;83;21035;-74
2022/10/19 10:29:37;;;;;;;3.40;1.42;;;;;;;13.56;87.51;101557.97;1695917;83;21142;-77
2022/10/19 10:32:16;;;;;;;4.35;1.02;;;;;;;13.48;86.75;101560.44;1695939;83;21043;-75
2022/10/19 10:34:59;;;;;;;4.03;1.20;;;;;;;13.35;86.70;101549.39;1682381;84;21440;-78
2022/10/19 10:37:44;;;;;;;3.30;1.10;;;;;;;13.24;86.66;101556.27;1687448;84;21034;-74
2022/10/19 10:40:26;;;;;;;4.08;1.25;;;;;;;13.14;86.56;101554.38;1676958;84;21038;-74
2022/10/19 10:42:59;;;;;;;2.27;0.80;;;;;;;12.99;86.36;101561.84;1696494;83;21123;-74
2022/10/19 10:45:31;;;;;;;4.22;1.00;;;;;;;12.84;86.21;101561.83;1695549;83;21031;-77
2022/10/19 10:48:07;;;;;;;4.30;1.00;;;;;;;12.67;85.98;101560.98;1696367;83;21023;-77
2022/10/19 10:50:35;;;;;;;2.47;1.20;;;;;;;12.55;86.18;101567.87;1675751;84;21498;-79
2022/10/19 10:53:08;;;;;;;2.42;1.20;;;;;;;12.48;86.59;101565.86;1696154;83;21608;-74
2022/10/19 10:55:35;;;;;;;2.25;1.57;;;;;;;12.39;86.58;101569.60;1692583;83;21082;-74
2022/10/19 10:58:19;;;;;;;4.05;1.10;;;;;;;12.38;87.03;101568.31;1674423;84;21053;-74
2022/10/19 11:00:48;;;;;;;3.27;1.02;;;;;;;12.40;87.12;101566.52;1695894;83;21456;-74
2022/10/19 11:03:28;;;;;;;3.25;1.00;;;;;;;12.43;87.32;101569.06;1696411;83;21553;-77
2022/10/19 11:06:01;;;;;;;2.70;1.10;;;;;;;12.53;87.53;101564.44;1696007;83;21670;-73
2022/10/19 11:09:00;;;;;;;2.77;1.20;;;;;;;12.66;87.58;101569.75;1696386;83;22019;-80
2022/10/19 11:11:42;;;;;;;3.27;1.20;;;;;;;12.87;87.74;101557.80;1698125;83;21007;-74
2022/10/19 11:14:29;;;;;;;1.67;1.00;;;;;;;12.99;86.97;101554.80;1693457;83;22063;-73
2022/10/19 11:17:01;;;;;;;2.55;1.20;;;;;;;13.08;86.97;101562.88;1680869;84;21037;-74
2022/10/19 11:19:43;;;;;;;1.75;1.10;;;;;;;13.21;87.05;101562.08;1695804;83;21030;-75
2022/10/19 11:22:53;;;;;;;2.12;0.90;;;;;;;13.29;86.95;101562.75;1691971;84;22014;-80
2022/10/19 11:25:39;;;;;;;;;;;;;;;13.27;86.29;101558.83;1695348;84;21021;-77
2022/10/19 11:28:20;;;;;;;4.70;1.20;;;;;;;13.15;85.99;101556.09;1694030;84;20207;-73
2022/10/19 11:31:02;;;;;;;1.95;0.85;;;;;;;13.10;86.02;101555.81;1660226;84;21506;-73
2022/10/19 11:33:56;;;;;;;3.08;1.00;;;;;;;12.99;85.99;101557.43;1677025;84;21549;-79
2022/10/19 11:36:55;;;;;;;4.47;1.22;;;;;;;12.95;86.01;101552.72;1676166;84;22197;-76
2022/10/19 11:39:45;;;;;;;2.27;0.75;;;;;;;12.87;85.98;101561.74;1673294;84;21479;-75
2022/10/19 11:42:20;;;;;;;3.40;1.35;;;;;;;12.82;86.08;101555.28;1691025;83;21563;-74